createdAt,value
2023-05-04T00:02:13.741Z,3.40
2023-05-04T00:04:42.689Z,3.37
2023-05-04T00:07:09.298Z,3.10
2023-05-04T00:09:35.572Z,3.03
2023-05-04T00:12:02.375Z,3.50
2023-05-04T00:14:28.616Z,3.57
2023-05-04T00:16:54.905Z,3.63
2023-05-04T00:19:21.370Z,3.23
2023-05-04T00:21:47.653Z,3.17
2023-05-04T00:24:13.976Z,3.43
2023-05-04T00:26:40.236Z,3.43
2023-05-04T00:29:06.525Z,3.50
2023-05-04T00:31:32.842Z,3.07
2023-05-04T00:33:59.143Z,3.27
2023-05-04T00:36:25.830Z,3.30
2023-05-04T00:38:53.912Z,3.30
2023-05-04T00:41:20.681Z,3.80
2023-05-04T00:43:47.286Z,3.20
2023-05-04T00:46:14.102Z,3.13
2023-05-04T00:48:45.245Z,3.53
2023-05-04T00:51:12.111Z,3.10
2023-05-04T00:53:38.760Z,3.57
2023-05-04T00:56:06.086Z,3.50
2023-05-04T00:58:32.529Z,3.40
2023-05-04T01:00:58.913Z,3.40
2023-05-04T01:03:26.110Z,3.00
2023-05-04T01:06:08.048Z,3.50
2023-05-04T01:08:38.573Z,3.20
2023-05-04T01:11:09.812Z,3.40
2023-05-04T01:13:37.708Z,3.10
2023-05-04T01:16:06.032Z,3.50
2023-05-04T01:18:32.309Z,3.60
2023-05-04T01:20:58.633Z,3.30
2023-05-04T01:23:26.197Z,3.33
2023-05-04T01:25:57.610Z,3.10
2023-05-04T01:28:27.769Z,3.50
2023-05-04T01:30:55.773Z,3.63
2023-05-04T01:33:22.206Z,3.20
2023-05-04T01:35:49.265Z,3.07
2023-05-04T01:38:15.584Z,3.63
2023-05-04T01:40:41.831Z,3.37
2023-05-04T01:43:08.188Z,3.27
2023-05-04T01:45:34.434Z,3.50
2023-05-04T01:48:00.764Z,3.40
2023-05-04T01:50:27.062Z,3.27
2023-05-04T01:52:53.304Z,3.70
2023-05-04T01:55:19.619Z,3.30
2023-05-04T01:57:45.884Z,3.00
2023-05-04T02:00:12.471Z,3.33
2023-05-04T02:02:38.876Z,3.30
2023-05-04T02:05:05.385Z,3.70
2023-05-04T02:07:31.677Z,2.90
2023-05-04T02:09:57.922Z,3.43
2023-05-04T02:12:24.223Z,3.37
2023-05-04T02:14:50.575Z,3.43
2023-05-04T02:17:16.875Z,3.40
2023-05-04T02:19:43.114Z,3.20
2023-05-04T02:22:09.386Z,3.40
2023-05-04T02:24:35.958Z,2.93
2023-05-04T02:27:02.643Z,3.10
2023-05-04T02:29:28.953Z,3.30
2023-05-04T02:31:55.330Z,2.60
2023-05-04T02:34:21.796Z,2.87
2023-05-04T02:36:48.095Z,3.30
2023-05-04T02:39:14.726Z,2.83
2023-05-04T02:41:41.025Z,3.07
2023-05-04T02:44:07.296Z,3.10
2023-05-04T02:46:33.539Z,2.83
2023-05-04T02:48:59.793Z,3.50
2023-05-04T02:51:26.008Z,3.03
2023-05-04T02:53:52.258Z,3.27
2023-05-04T02:56:18.492Z,3.40
2023-05-04T02:58:44.741Z,3.50
2023-05-04T03:01:11.055Z,3.47
2023-05-04T03:03:37.883Z,3.73
2023-05-04T03:06:04.258Z,3.00
2023-05-04T03:08:30.915Z,3.43
2023-05-04T03:10:57.204Z,3.47
2023-05-04T03:13:23.700Z,3.00
2023-05-04T03:15:49.984Z,3.83
2023-05-04T03:18:16.277Z,3.20
2023-05-04T03:20:42.611Z,3.40
2023-05-04T03:23:08.850Z,3.77
2023-05-04T03:25:35.082Z,3.33
2023-05-04T03:28:01.406Z,3.80
2023-05-04T03:30:27.700Z,3.33
2023-05-04T03:32:54.045Z,3.30
2023-05-04T03:35:24.694Z,3.33
2023-05-04T03:37:51.621Z,3.50
2023-05-04T03:40:22.601Z,3.27
2023-05-04T03:42:49.154Z,3.23
2023-05-04T03:45:15.738Z,3.50
2023-05-04T03:47:42.200Z,4.03
2023-05-04T03:50:09.587Z,3.30
2023-05-04T03:52:36.057Z,3.50
2023-05-04T03:55:02.420Z,3.97
2023-05-04T03:57:28.674Z,3.50
2023-05-04T04:00:01.576Z,3.90
2023-05-04T04:02:28.006Z,3.57
2023-05-04T04:04:54.345Z,3.97
2023-05-04T04:07:25.827Z,3.60
2023-05-04T04:09:54.878Z,3.43
2023-05-04T04:12:21.117Z,3.63
2023-05-04T04:14:48.849Z,3.67
2023-05-04T04:17:15.213Z,3.73
2023-05-04T04:19:41.484Z,4.63
2023-05-04T04:22:07.781Z,3.77
2023-05-04T04:24:34.094Z,4.40
2023-05-04T04:27:00.353Z,3.50
2023-05-04T04:29:27.230Z,3.53
2023-05-04T04:31:53.521Z,4.33
2023-05-04T04:34:19.845Z,4.50
2023-05-04T04:36:46.275Z,3.87
2023-05-04T04:39:12.529Z,3.43
2023-05-04T04:41:38.822Z,3.50
2023-05-04T04:44:05.690Z,3.43
2023-05-04T04:46:32.250Z,4.17
2023-05-04T04:48:58.620Z,3.67
2023-05-04T04:51:25.559Z,4.07
2023-05-04T04:53:52.173Z,3.83
2023-05-04T04:56:19.209Z,4.00
2023-05-04T04:58:46.110Z,3.77
2023-05-04T05:01:17.607Z,3.90
2023-05-04T05:03:44.660Z,4.30
2023-05-04T05:06:11.648Z,4.10
2023-05-04T05:08:38.298Z,4.00
2023-05-04T05:11:04.598Z,4.50
2023-05-04T05:13:31.360Z,4.17
2023-05-04T05:15:57.614Z,4.70
2023-05-04T05:18:24.770Z,4.30
2023-05-04T05:20:51.353Z,4.07
2023-05-04T05:23:17.907Z,3.70
2023-05-04T05:25:44.397Z,4.63
2023-05-04T05:28:10.711Z,4.60
2023-05-04T05:30:36.945Z,4.13
2023-05-04T05:33:03.806Z,4.33
2023-05-04T05:35:30.124Z,4.93
2023-05-04T05:37:56.522Z,4.63
2023-05-04T05:40:22.808Z,4.20
2023-05-04T05:42:49.420Z,4.30
2023-05-04T05:45:15.670Z,4.70
2023-05-04T05:47:41.981Z,4.27
2023-05-04T05:50:08.747Z,3.90
2023-05-04T05:52:35.170Z,4.10
2023-05-04T05:55:02.642Z,3.83
2023-05-04T05:57:29.265Z,3.90
2023-05-04T05:59:56.667Z,4.57
2023-05-04T06:02:23.141Z,4.27
2023-05-04T06:04:49.769Z,4.00
2023-05-04T06:07:16.657Z,3.93
2023-05-04T06:09:42.956Z,4.33
2023-05-04T06:12:13.400Z,4.20
2023-05-04T06:14:39.753Z,4.43
2023-05-04T06:17:06.069Z,3.93
2023-05-04T06:19:37.266Z,4.00
2023-05-04T06:22:04.180Z,4.50
2023-05-04T06:24:31.359Z,4.30
2023-05-04T06:26:58.033Z,4.33
2023-05-04T06:29:24.615Z,4.70
2023-05-04T06:31:51.181Z,4.00
2023-05-04T06:34:17.549Z,4.73
2023-05-04T06:36:44.257Z,4.37
2023-05-04T06:39:10.713Z,4.53
2023-05-04T06:41:39.665Z,4.03
2023-05-04T06:44:06.622Z,4.03
2023-05-04T06:46:37.299Z,4.40
2023-05-04T06:49:04.284Z,4.40
2023-05-04T06:51:31.412Z,3.87
2023-05-04T06:53:57.849Z,3.87
2023-05-04T06:56:24.311Z,3.58
2023-05-04T06:58:50.650Z,4.18
2023-05-04T07:01:18.419Z,3.20
2023-05-04T07:03:45.028Z,3.42
2023-05-04T07:06:11.406Z,3.80
2023-05-04T07:08:38.447Z,3.08
2023-05-04T07:11:05.535Z,3.80
2023-05-04T07:13:32.413Z,3.05
2023-05-04T07:15:58.757Z,3.47
2023-05-04T07:18:25.127Z,3.47
2023-05-04T07:20:52.887Z,3.25
2023-05-04T07:23:20.230Z,3.15
2023-05-04T07:25:46.575Z,3.10
2023-05-04T07:28:12.856Z,3.25
2023-05-04T07:30:39.105Z,3.30
2023-05-04T07:33:05.413Z,3.55
2023-05-04T07:35:31.715Z,2.97
2023-05-04T07:37:58.107Z,2.95
2023-05-04T07:40:25.421Z,3.20
2023-05-04T07:42:51.800Z,3.20
2023-05-04T07:45:18.160Z,3.05
2023-05-04T07:47:44.556Z,2.80
2023-05-04T07:50:11.097Z,2.58
2023-05-04T07:52:37.363Z,2.95
2023-05-04T07:55:03.738Z,3.00
2023-05-04T07:57:32.329Z,2.75
2023-05-04T07:59:58.631Z,3.05
2023-05-04T08:02:25.047Z,2.50
2023-05-04T08:04:51.341Z,2.50
2023-05-04T08:07:18.865Z,2.50
2023-05-04T08:09:45.151Z,2.38
2023-05-04T08:12:12.256Z,2.30
2023-05-04T08:14:39.103Z,2.38
2023-05-04T08:17:05.460Z,2.60
2023-05-04T08:19:31.725Z,3.10
2023-05-04T08:21:58.004Z,2.60
2023-05-04T08:24:24.330Z,2.45
2023-05-04T08:27:03.694Z,2.60
2023-05-04T08:29:33.890Z,2.30
2023-05-04T08:32:00.388Z,2.53
2023-05-04T08:34:26.908Z,2.35
2023-05-04T08:36:53.218Z,2.45
2023-05-04T08:39:19.761Z,2.20
2023-05-04T08:41:46.055Z,2.15
2023-05-04T08:44:12.426Z,2.40
2023-05-04T08:46:39.620Z,2.65
2023-05-04T08:49:06.793Z,2.30
2023-05-04T08:51:35.370Z,2.60
2023-05-04T08:54:02.343Z,2.38
2023-05-04T08:56:28.685Z,2.90
2023-05-04T08:58:58.008Z,2.53
2023-05-04T09:01:24.574Z,2.13
2023-05-04T09:03:52.351Z,2.53
2023-05-04T09:06:19.046Z,2.17
2023-05-04T09:08:45.428Z,2.27
2023-05-04T09:11:11.736Z,2.77
2023-05-04T09:13:38.781Z,2.30
2023-05-04T09:16:05.512Z,2.33
2023-05-04T09:18:38.878Z,2.70
2023-05-04T09:21:05.215Z,2.33
2023-05-04T09:23:31.539Z,2.53
2023-05-04T09:25:57.870Z,2.30
2023-05-04T09:28:34.085Z,2.20
2023-05-04T09:31:01.239Z,3.03
2023-05-04T09:33:28.193Z,2.80
2023-05-04T09:35:54.682Z,2.50
2023-05-04T09:38:25.230Z,2.77
2023-05-04T09:40:51.492Z,2.60
2023-05-04T09:43:18.867Z,2.40
2023-05-04T09:45:46.509Z,2.47
2023-05-04T09:48:19.980Z,2.70
2023-05-04T09:50:50.947Z,2.70
2023-05-04T09:53:19.886Z,2.77
2023-05-04T09:55:47.660Z,2.37
2023-05-04T09:58:16.628Z,2.90
2023-05-04T10:00:43.793Z,2.63
2023-05-04T10:03:10.300Z,2.80
2023-05-04T10:05:38.689Z,2.67
2023-05-04T10:08:05.755Z,2.80
2023-05-04T10:10:32.556Z,2.97
2023-05-04T10:12:58.847Z,2.90
2023-05-04T10:15:25.385Z,2.37
2023-05-04T10:18:07.388Z,2.77
2023-05-04T10:20:33.727Z,2.37
2023-05-04T10:23:09.439Z,2.50
2023-05-04T10:25:52.321Z,2.37
2023-05-04T10:28:24.213Z,2.63
2023-05-04T10:30:58.242Z,2.57
2023-05-04T10:33:25.733Z,2.90
2023-05-04T10:35:55.895Z,2.47
2023-05-04T10:38:35.506Z,2.73
2023-05-04T10:41:12.601Z,3.00
2023-05-04T10:43:38.905Z,2.50
2023-05-04T10:46:15.602Z,2.57
2023-05-04T10:48:41.926Z,2.67
2023-05-04T10:51:17.070Z,2.87
2023-05-04T10:53:43.330Z,3.03
2023-05-04T10:56:19.195Z,2.80
2023-05-04T10:58:46.813Z,2.78
2023-05-04T11:01:13.516Z,2.90
2023-05-04T11:03:43.826Z,2.90
2023-05-04T11:06:17.535Z,2.90
2023-05-04T11:08:45.495Z,2.80
2023-05-04T11:11:11.801Z,3.00
2023-05-04T11:13:44.531Z,2.60
2023-05-04T11:16:12.776Z,2.67
2023-05-04T11:18:39.237Z,2.60
2023-05-04T11:21:05.557Z,2.97
2023-05-04T11:23:32.323Z,3.17
2023-05-04T11:25:59.069Z,3.03
2023-05-04T11:28:37.517Z,3.43
2023-05-04T11:31:13.922Z,2.80
2023-05-04T11:33:50.481Z,2.63
2023-05-04T11:36:17.149Z,2.87
2023-05-04T11:38:43.885Z,2.93
2023-05-04T11:41:10.480Z,3.30
2023-05-04T11:43:37.782Z,3.00
2023-05-04T11:46:04.702Z,2.77
2023-05-04T11:48:32.339Z,2.67
2023-05-04T11:50:59.061Z,2.77
2023-05-04T11:53:25.398Z,3.40
2023-05-04T11:55:56.112Z,3.13
2023-05-04T11:58:28.462Z,3.17
2023-05-04T12:00:58.792Z,2.70
2023-05-04T12:03:39.855Z,3.53
2023-05-04T12:06:15.063Z,2.83
2023-05-04T12:08:44.321Z,3.17
2023-05-04T12:11:20.373Z,3.43
2023-05-04T12:13:47.722Z,3.03
2023-05-04T12:16:15.011Z,3.10
2023-05-04T12:18:41.725Z,3.43
2023-05-04T12:21:18.587Z,3.57
2023-05-04T12:23:45.461Z,2.87
2023-05-04T12:26:12.358Z,3.00
2023-05-04T12:28:39.903Z,3.00
2023-05-04T12:31:09.419Z,2.87
2023-05-04T12:33:36.229Z,2.57
2023-05-04T12:36:03.550Z,3.13
2023-05-04T12:38:30.029Z,2.80
2023-05-04T12:40:58.963Z,2.50
2023-05-04T12:43:25.374Z,3.17
2023-05-04T12:45:52.134Z,2.90
2023-05-04T12:48:20.324Z,3.50
2023-05-04T12:50:47.420Z,3.13
2023-05-04T12:53:13.787Z,2.93
2023-05-04T12:55:40.428Z,2.67
2023-05-04T12:58:06.940Z,2.97
2023-05-04T13:00:37.201Z,2.90
2023-05-04T13:03:04.093Z,3.57
2023-05-04T13:05:30.911Z,2.50
2023-05-04T13:07:57.495Z,2.92
2023-05-04T13:10:24.349Z,2.43
2023-05-04T13:12:51.714Z,2.70
2023-05-04T13:15:18.197Z,3.00
2023-05-04T13:17:45.087Z,2.80
2023-05-04T13:20:12.034Z,2.77
2023-05-04T13:22:38.334Z,2.57
2023-05-04T13:25:05.170Z,2.40
2023-05-04T13:27:32.748Z,3.20
2023-05-04T13:30:01.223Z,2.90
2023-05-04T13:32:27.753Z,2.50
2023-05-04T13:34:54.076Z,2.77
2023-05-04T13:37:20.386Z,3.33
2023-05-04T13:39:46.967Z,2.70
2023-05-04T13:42:13.473Z,2.90
2023-05-04T13:44:45.021Z,2.43
2023-05-04T13:47:12.593Z,2.87
2023-05-04T13:49:39.253Z,2.60
2023-05-04T13:52:05.862Z,2.70
2023-05-04T13:54:32.356Z,2.70
2023-05-04T13:57:00.058Z,3.43
2023-05-04T13:59:26.422Z,3.00
2023-05-04T14:01:53.380Z,2.57
2023-05-04T14:04:19.719Z,2.77
2023-05-04T14:06:49.887Z,2.67
2023-05-04T14:09:16.623Z,2.90
2023-05-04T14:11:42.918Z,2.63
2023-05-04T14:14:09.424Z,2.70
2023-05-04T14:16:37.492Z,3.23
2023-05-04T14:19:04.758Z,2.80
2023-05-04T14:21:31.081Z,2.40
2023-05-04T14:23:57.332Z,2.40
2023-05-04T14:26:23.630Z,2.60
2023-05-04T14:28:49.878Z,2.70
2023-05-04T14:31:16.174Z,2.70
2023-05-04T14:33:42.838Z,2.50
2023-05-04T14:36:12.225Z,2.50
2023-05-04T14:38:38.568Z,2.63
2023-05-04T14:41:05.177Z,2.30
2023-05-04T14:43:31.708Z,2.63
2023-05-04T14:46:01.049Z,2.20
2023-05-04T14:48:27.609Z,2.77
2023-05-04T14:50:54.546Z,2.80
2023-05-04T14:53:21.779Z,2.43
2023-05-04T14:55:48.068Z,2.90
2023-05-04T14:58:15.495Z,2.53
2023-05-04T15:00:42.171Z,2.50
2023-05-04T15:03:09.218Z,2.73
2023-05-04T15:05:35.606Z,2.60
2023-05-04T15:08:02.108Z,2.70
2023-05-04T15:10:28.374Z,2.47
2023-05-04T15:12:54.669Z,2.53
2023-05-04T15:15:21.070Z,2.47
2023-05-04T15:17:50.415Z,2.53
2023-05-04T15:20:17.012Z,2.63
2023-05-04T15:22:44.116Z,2.75
2023-05-04T15:25:10.401Z,2.80
2023-05-04T15:27:36.699Z,2.90
2023-05-04T15:30:04.034Z,3.00
2023-05-04T15:32:30.430Z,2.30
2023-05-04T15:35:04.546Z,2.40
2023-05-04T15:37:32.029Z,2.30
2023-05-04T15:39:59.647Z,2.60
2023-05-04T15:42:28.240Z,2.63
2023-05-04T15:44:54.522Z,2.33
2023-05-04T15:47:20.975Z,2.57
2023-05-04T15:49:47.678Z,2.53
2023-05-04T15:52:13.958Z,2.50
2023-05-04T15:54:40.219Z,2.50
2023-05-04T15:57:07.704Z,2.27
2023-05-04T15:59:33.977Z,2.57
2023-05-04T16:02:00.619Z,2.33
2023-05-04T16:04:27.882Z,2.43
2023-05-04T16:06:54.381Z,2.30
2023-05-04T16:09:20.951Z,2.43
2023-05-04T16:11:47.275Z,2.13
2023-05-04T16:14:14.208Z,2.47
2023-05-04T16:16:41.406Z,2.57
2023-05-04T16:19:10.878Z,2.40
2023-05-04T16:21:37.891Z,2.43
2023-05-04T16:24:04.272Z,2.30
2023-05-04T16:26:30.580Z,2.00
2023-05-04T16:28:56.845Z,2.40
2023-05-04T16:31:23.109Z,2.30
2023-05-04T16:33:49.394Z,2.50
2023-05-04T16:36:15.976Z,2.50
2023-05-04T16:38:42.424Z,2.50
2023-05-04T16:41:08.683Z,2.20
2023-05-04T16:43:34.943Z,2.50
2023-05-04T16:46:01.285Z,2.50
2023-05-04T16:48:27.778Z,2.37
2023-05-04T16:50:54.032Z,2.30
2023-05-04T16:53:20.935Z,2.50
2023-05-04T16:55:47.216Z,2.10
2023-05-04T16:58:13.559Z,2.50
2023-05-04T17:00:42.871Z,2.30
2023-05-04T17:03:09.229Z,2.80
2023-05-04T17:05:35.704Z,2.30
2023-05-04T17:08:02.061Z,2.27
2023-05-04T17:10:28.346Z,2.40
2023-05-04T17:12:54.915Z,2.33
2023-05-04T17:15:21.219Z,2.57
2023-05-04T17:17:47.565Z,2.47
2023-05-04T17:20:15.060Z,2.40
2023-05-04T17:22:42.195Z,2.27
2023-05-04T17:25:09.583Z,2.53
2023-05-04T17:27:35.920Z,2.43
2023-05-04T17:30:02.183Z,2.83
2023-05-04T17:32:28.427Z,2.40
2023-05-04T17:34:56.549Z,2.33
2023-05-04T17:37:23.404Z,2.60
2023-05-04T17:39:49.659Z,2.40
2023-05-04T17:42:15.972Z,2.17
2023-05-04T17:44:42.251Z,2.37
2023-05-04T17:47:08.552Z,2.30
2023-05-04T17:49:34.832Z,2.40
2023-05-04T17:52:03.898Z,2.37
2023-05-04T17:54:30.342Z,2.30
2023-05-04T17:56:56.678Z,2.90
2023-05-04T17:59:22.985Z,2.30
2023-05-04T18:01:49.235Z,2.50
2023-05-04T18:04:15.726Z,2.40
2023-05-04T18:06:42.070Z,2.50
2023-05-04T18:09:08.335Z,2.50
2023-05-04T18:11:34.699Z,2.50
2023-05-04T18:14:01.427Z,2.77
2023-05-04T18:16:27.856Z,2.77
2023-05-04T18:18:54.166Z,2.60
2023-05-04T18:21:20.820Z,2.30
2023-05-04T18:23:47.069Z,3.03
2023-05-04T18:26:22.769Z,2.73
2023-05-04T18:28:49.588Z,2.90
2023-05-04T18:31:16.239Z,3.07
2023-05-04T18:33:42.600Z,2.67
2023-05-04T18:56:52.811Z,3.20
2023-05-04T18:59:19.052Z,2.60
2023-05-04T19:01:45.346Z,3.07
2023-05-04T19:12:37.521Z,3.17
2023-05-04T19:15:04.526Z,3.20
2023-05-04T19:17:32.613Z,3.40
2023-05-04T19:19:58.877Z,2.97
2023-05-04T19:22:25.938Z,3.60
2023-05-04T19:24:52.278Z,3.83
2023-05-04T19:27:18.592Z,2.73
2023-05-04T19:29:44.924Z,3.13
2023-05-04T19:32:22.771Z,3.30
2023-05-04T19:34:50.248Z,3.03
2023-05-04T19:37:16.515Z,3.00
2023-05-04T19:39:42.826Z,3.40
2023-05-04T19:42:09.126Z,3.03
2023-05-04T19:44:35.454Z,3.40
2023-05-04T19:47:01.846Z,3.03
2023-05-04T19:49:28.223Z,3.30
2023-05-04T19:51:54.743Z,3.07
2023-05-04T19:54:21.039Z,3.70
2023-05-04T19:56:47.687Z,3.53
2023-05-04T19:59:13.981Z,3.50
2023-05-04T20:01:40.413Z,3.63
2023-05-04T20:06:56.733Z,3.33
2023-05-04T20:09:22.982Z,3.23
2023-05-04T20:11:49.290Z,3.33
2023-05-04T20:14:15.560Z,3.43
2023-05-04T20:16:42.478Z,3.40
2023-05-04T20:21:55.579Z,3.00
2023-05-04T20:24:22.270Z,3.50
2023-05-04T20:26:48.530Z,3.63
2023-05-04T20:29:14.768Z,3.23
2023-05-04T20:31:41.586Z,3.30
2023-05-04T20:34:08.017Z,3.13
2023-05-04T20:36:34.320Z,3.20
2023-05-04T20:39:02.422Z,3.43
2023-05-04T20:41:28.690Z,3.20
2023-05-04T20:43:54.935Z,3.30
2023-05-04T20:46:21.923Z,3.33
2023-05-04T20:48:48.247Z,3.57
2023-05-04T20:51:15.624Z,2.97
2023-05-04T20:53:42.155Z,3.40
2023-05-04T20:56:08.425Z,4.13
2023-05-04T20:58:34.915Z,3.63
2023-05-04T21:01:04.774Z,3.23
2023-05-04T21:03:31.518Z,3.70
2023-05-04T21:05:58.152Z,3.60
2023-05-04T21:08:24.635Z,3.50
2023-05-04T21:10:51.884Z,3.50
2023-05-04T21:13:19.221Z,3.83
2023-05-04T21:15:45.755Z,3.17
2023-05-04T21:18:12.111Z,3.20
2023-05-04T21:20:43.810Z,3.17
2023-05-04T21:23:10.117Z,3.07
2023-05-04T21:25:36.516Z,3.87
2023-05-04T21:28:03.261Z,3.40
2023-05-04T21:30:29.836Z,3.30
2023-05-04T21:32:56.230Z,3.60
2023-05-04T21:35:22.565Z,3.40
2023-05-04T21:37:48.852Z,3.50
2023-05-04T21:40:15.162Z,3.57
2023-05-04T21:42:42.677Z,3.57
2023-05-04T21:45:09.097Z,3.80
2023-05-04T21:47:36.342Z,3.10
2023-05-04T21:50:03.962Z,3.63
2023-05-04T21:52:30.484Z,3.40
2023-05-04T21:54:56.827Z,3.13
2023-05-04T21:57:23.147Z,3.00
2023-05-04T21:59:49.747Z,3.30
2023-05-04T22:02:16.280Z,3.33
2023-05-04T22:04:43.469Z,3.27
2023-05-04T22:07:09.950Z,3.50
2023-05-04T22:09:36.238Z,3.17
2023-05-04T22:12:03.038Z,3.50
2023-05-04T22:14:29.284Z,3.40
2023-05-04T22:16:55.723Z,3.53
2023-05-04T22:19:22.043Z,3.60
2023-05-04T22:21:48.362Z,3.67
2023-05-04T22:24:14.775Z,3.23
2023-05-04T22:26:41.292Z,3.77
2023-05-04T22:29:07.621Z,3.20
2023-05-04T22:31:33.877Z,3.50
2023-05-04T22:34:00.154Z,3.20
2023-05-04T22:36:26.567Z,3.27
2023-05-04T22:38:53.033Z,3.33
2023-05-04T22:41:19.279Z,3.40
2023-05-04T22:43:45.544Z,4.13
2023-05-04T22:46:16.515Z,3.87
2023-05-04T22:48:44.841Z,3.60
2023-05-04T22:51:11.145Z,3.30
2023-05-04T22:53:37.390Z,3.70
2023-05-04T22:56:03.716Z,3.60
2023-05-04T22:58:30.007Z,3.67
2023-05-04T23:00:56.281Z,3.77
2023-05-04T23:03:22.703Z,3.80
2023-05-04T23:05:49.063Z,3.60
2023-05-04T23:08:15.940Z,4.30
2023-05-04T23:10:45.554Z,3.90
2023-05-04T23:13:11.961Z,3.70
2023-05-04T23:15:38.262Z,3.73
2023-05-04T23:18:04.809Z,3.80
2023-05-04T23:20:34.238Z,4.30
2023-05-04T23:23:00.606Z,3.80
2023-05-04T23:25:26.939Z,4.07
2023-05-04T23:27:53.179Z,3.80
2023-05-04T23:30:19.528Z,4.30
2023-05-04T23:32:45.934Z,4.40
2023-05-04T23:35:12.220Z,3.43
2023-05-04T23:37:38.570Z,3.93
2023-05-04T23:40:05.430Z,3.47
2023-05-04T23:42:31.830Z,3.43
2023-05-04T23:44:58.082Z,3.80
2023-05-04T23:47:24.328Z,3.60
2023-05-04T23:49:50.699Z,4.27
2023-05-04T23:52:17.114Z,3.67
2023-05-04T23:54:43.571Z,3.93
2023-05-04T23:57:09.991Z,3.67
2023-05-04T23:59:36.771Z,4.00
